sensor_id;sensor_type;location;lat;lon;timestamp;pressure;altitude;pressure_sealevel;temperature;humidity
58785;BME280;44557;51.862;19.378;2023-05-20T00:01:56;100257.78;;;12.63;100.00
58785;BME280;44557;51.862;19.378;2023-05-20T00:03:58;100259.66;;;12.55;100.00
58785;BME280;44557;51.862;19.378;2023-05-20T00:06:01;100258.30;;;12.64;100.00
58785;BME280;44557;51.862;19.378;2023-05-20T00:08:03;100256.58;;;12.63;100.00
58785;BME280;44557;51.862;19.378;2023-05-20T00:10:08;100260.45;;;12.59;100.00
58785;BME280;44557;51.862;19.378;2023-05-20T00:12:11;100257.61;;;12.61;100.00
58785;BME280;44557;51.862;19.378;2023-05-20T00:14:13;100257.27;;;12.54;100.00
58785;BME280;44557;51.862;19.378;2023-05-20T00:16:16;100259.85;;;12.57;100.00
58785;BME280;44557;51.862;19.378;2023-05-20T00:18:18;100260.05;;;12.60;100.00
58785;BME280;44557;51.862;19.378;2023-05-20T00:20:20;100259.25;;;12.58;100.00
58785;BME280;44557;51.862;19.378;2023-05-20T00:22:23;100253.95;;;12.60;100.00
58785;BME280;44557;51.862;19.378;2023-05-20T00:24:26;100256.60;;;12.53;100.00
58785;BME280;44557;51.862;19.378;2023-05-20T00:26:28;100254.13;;;12.52;100.00
58785;BME280;44557;51.862;19.378;2023-05-20T00:28:30;100252.14;;;12.69;100.00
58785;BME280;44557;51.862;19.378;2023-05-20T00:30:32;100252.28;;;12.68;100.00
58785;BME280;44557;51.862;19.378;2023-05-20T00:32:34;100254.58;;;12.77;100.00
58785;BME280;44557;51.862;19.378;2023-05-20T00:34:36;100254.97;;;12.72;100.00
58785;BME280;44557;51.862;19.378;2023-05-20T00:36:38;100252.27;;;12.80;100.00
58785;BME280;44557;51.862;19.378;2023-05-20T00:38:40;100253.60;;;12.72;100.00
58785;BME280;44557;51.862;19.378;2023-05-20T00:40:42;100253.84;;;12.74;100.00
58785;BME280;44557;51.862;19.378;2023-05-20T00:42:44;100257.05;;;12.77;100.00
58785;BME280;44557;51.862;19.378;2023-05-20T00:44:47;100257.42;;;12.94;100.00
58785;BME280;44557;51.862;19.378;2023-05-20T00:46:49;100256.36;;;12.91;100.00
58785;BME280;44557;51.862;19.378;2023-05-20T00:48:51;100253.79;;;12.87;100.00
58785;BME280;44557;51.862;19.378;2023-05-20T00:50:53;100254.09;;;12.89;100.00
58785;BME280;44557;51.862;19.378;2023-05-20T00:52:56;100251.36;;;12.90;100.00
58785;BME280;44557;51.862;19.378;2023-05-20T00:54:59;100253.23;;;13.01;100.00
58785;BME280;44557;51.862;19.378;2023-05-20T00:57:02;100254.65;;;13.00;100.00
58785;BME280;44557;51.862;19.378;2023-05-20T00:59:07;100259.26;;;12.94;100.00
58785;BME280;44557;51.862;19.378;2023-05-20T01:01:09;100257.40;;;12.96;100.00
58785;BME280;44557;51.862;19.378;2023-05-20T01:03:12;100257.92;;;13.05;100.00
58785;BME280;44557;51.862;19.378;2023-05-20T01:05:14;100260.81;;;13.03;100.00
58785;BME280;44557;51.862;19.378;2023-05-20T01:07:17;100258.92;;;12.88;100.00
58785;BME280;44557;51.862;19.378;2023-05-20T01:09:20;100257.08;;;12.97;100.00
58785;BME280;44557;51.862;19.378;2023-05-20T01:11:30;100255.14;;;12.81;100.00
58785;BME280;44557;51.862;19.378;2023-05-20T01:13:42;100256.10;;;12.84;100.00
58785;BME280;44557;51.862;19.378;2023-05-20T01:15:47;100257.52;;;12.88;100.00
58785;BME280;44557;51.862;19.378;2023-05-20T01:17:55;100256.46;;;12.87;100.00
58785;BME280;44557;51.862;19.378;2023-05-20T01:19:59;100254.21;;;12.90;100.00
58785;BME280;44557;51.862;19.378;2023-05-20T01:22:05;100253.52;;;12.89;100.00
58785;BME280;44557;51.862;19.378;2023-05-20T01:24:08;100253.64;;;13.01;100.00
58785;BME280;44557;51.862;19.378;2023-05-20T01:26:10;100253.77;;;12.89;100.00
58785;BME280;44557;51.862;19.378;2023-05-20T01:28:15;100250.95;;;12.88;100.00
58785;BME280;44557;51.862;19.378;2023-05-20T01:30:19;100251.05;;;12.77;100.00
58785;BME280;44557;51.862;19.378;2023-05-20T01:32:26;100249.55;;;12.82;100.00
58785;BME280;44557;51.862;19.378;2023-05-20T01:34:33;100248.41;;;12.85;100.00
58785;BME280;44557;51.862;19.378;2023-05-20T01:36:38;100247.56;;;12.75;100.00
58785;BME280;44557;51.862;19.378;2023-05-20T01:38:41;100247.65;;;12.79;100.00
58785;BME280;44557;51.862;19.378;2023-05-20T01:40:45;100246.23;;;12.82;100.00
58785;BME280;44557;51.862;19.378;2023-05-20T01:42:49;100242.48;;;12.83;100.00
58785;BME280;44557;51.862;19.378;2023-05-20T01:44:54;100240.63;;;12.82;100.00
58785;BME280;44557;51.862;19.378;2023-05-20T01:46:56;100238.42;;;12.78;100.00
58785;BME280;44557;51.862;19.378;2023-05-20T01:48:57;100234.61;;;12.79;100.00
58785;BME280;44557;51.862;19.378;2023-05-20T01:50:59;100231.98;;;12.76;100.00
58785;BME280;44557;51.862;19.378;2023-05-20T01:53:01;100232.21;;;12.88;100.00
58785;BME280;44557;51.862;19.378;2023-05-20T01:55:03;100231.55;;;12.78;100.00
58785;BME280;44557;51.862;19.378;2023-05-20T01:57:05;100232.44;;;12.68;100.00
58785;BME280;44557;51.862;19.378;2023-05-20T01:59:07;100229.54;;;12.68;100.00
58785;BME280;44557;51.862;19.378;2023-05-20T02:01:10;100227.67;;;12.69;100.00
58785;BME280;44557;51.862;19.378;2023-05-20T02:03:14;100227.68;;;12.69;100.00
58785;BME280;44557;51.862;19.378;2023-05-20T02:05:16;100228.00;;;12.63;100.00
58785;BME280;44557;51.862;19.378;2023-05-20T02:07:18;100232.31;;;12.75;100.00
58785;BME280;44557;51.862;19.378;2023-05-20T02:09:20;100231.20;;;12.71;100.00
58785;BME280;44557;51.862;19.378;2023-05-20T02:11:22;100231.98;;;12.64;100.00
58785;BME280;44557;51.862;19.378;2023-05-20T02:13:24;100226.27;;;12.74;100.00
58785;BME280;44557;51.862;19.378;2023-05-20T02:15:26;100225.35;;;12.81;100.00
58785;BME280;44557;51.862;19.378;2023-05-20T02:17:28;100224.21;;;12.91;100.00
58785;BME280;44557;51.862;19.378;2023-05-20T02:19:29;100220.02;;;12.78;100.00
58785;BME280;44557;51.862;19.378;2023-05-20T02:21:40;100217.87;;;12.71;100.00
58785;BME280;44557;51.862;19.378;2023-05-20T02:23:43;100218.52;;;12.67;100.00
58785;BME280;44557;51.862;19.378;2023-05-20T02:25:45;100216.77;;;12.64;100.00
58785;BME280;44557;51.862;19.378;2023-05-20T02:27:47;100219.11;;;12.68;100.00
58785;BME280;44557;51.862;19.378;2023-05-20T02:29:49;100219.54;;;12.77;100.00
58785;BME280;44557;51.862;19.378;2023-05-20T02:31:52;100217.80;;;12.82;100.00
58785;BME280;44557;51.862;19.378;2023-05-20T02:33:53;100214.29;;;12.76;100.00
58785;BME280;44557;51.862;19.378;2023-05-20T02:35:56;100213.20;;;12.66;100.00
58785;BME280;44557;51.862;19.378;2023-05-20T02:37:58;100210.35;;;12.66;100.00
58785;BME280;44557;51.862;19.378;2023-05-20T02:40:00;100210.55;;;12.78;100.00
58785;BME280;44557;51.862;19.378;2023-05-20T02:42:02;100212.73;;;12.84;100.00
58785;BME280;44557;51.862;19.378;2023-05-20T02:44:05;100213.52;;;12.86;100.00
58785;BME280;44557;51.862;19.378;2023-05-20T02:46:07;100210.86;;;12.92;100.00
58785;BME280;44557;51.862;19.378;2023-05-20T02:48:09;100218.98;;;12.93;100.00
58785;BME280;44557;51.862;19.378;2023-05-20T02:50:11;100217.12;;;12.85;100.00
58785;BME280;44557;51.862;19.378;2023-05-20T02:52:13;100217.68;;;12.91;100.00
58785;BME280;44557;51.862;19.378;2023-05-20T02:54:17;100223.86;;;12.95;100.00
58785;BME280;44557;51.862;19.378;2023-05-20T02:56:18;100224.64;;;12.96;100.00
58785;BME280;44557;51.862;19.378;2023-05-20T02:58:22;100222.76;;;12.90;100.00
58785;BME280;44557;51.862;19.378;2023-05-20T03:00:27;100222.15;;;12.96;100.00
58785;BME280;44557;51.862;19.378;2023-05-20T03:02:32;100219.95;;;12.91;100.00
58785;BME280;44557;51.862;19.378;2023-05-20T03:04:34;100222.02;;;12.89;100.00
58785;BME280;44557;51.862;19.378;2023-05-20T03:06:39;100223.08;;;12.88;100.00
58785;BME280;44557;51.862;19.378;2023-05-20T03:08:44;100219.48;;;12.89;100.00
58785;BME280;44557;51.862;19.378;2023-05-20T03:10:47;100221.45;;;12.80;100.00
58785;BME280;44557;51.862;19.378;2023-05-20T03:12:48;100218.39;;;12.82;100.00
58785;BME280;44557;51.862;19.378;2023-05-20T03:14:51;100218.02;;;12.83;100.00
58785;BME280;44557;51.862;19.378;2023-05-20T03:16:55;100218.86;;;12.79;100.00
58785;BME280;44557;51.862;19.378;2023-05-20T03:18:58;100219.38;;;12.84;100.00
58785;BME280;44557;51.862;19.378;2023-05-20T03:21:00;100225.55;;;12.96;100.00
58785;BME280;44557;51.862;19.378;2023-05-20T03:23:03;100233.79;;;12.96;100.00
58785;BME280;44557;51.862;19.378;2023-05-20T03:25:05;100231.67;;;12.96;100.00
58785;BME280;44557;51.862;19.378;2023-05-20T03:27:07;100235.27;;;12.98;100.00
58785;BME280;44557;51.862;19.378;2023-05-20T03:29:09;100234.20;;;12.94;100.00
58785;BME280;44557;51.862;19.378;2023-05-20T03:31:12;100239.67;;;12.93;100.00
58785;BME280;44557;51.862;19.378;2023-05-20T03:33:13;100241.50;;;12.86;100.00
58785;BME280;44557;51.862;19.378;2023-05-20T03:35:17;100239.41;;;12.81;100.00
58785;BME280;44557;51.862;19.378;2023-05-20T03:37:20;100240.37;;;12.88;100.00
58785;BME280;44557;51.862;19.378;2023-05-20T03:39:22;100241.06;;;12.94;100.00
58785;BME280;44557;51.862;19.378;2023-05-20T03:41:24;100247.35;;;12.91;100.00
58785;BME280;44557;51.862;19.378;2023-05-20T03:43:26;100248.81;;;13.07;100.00
58785;BME280;44557;51.862;19.378;2023-05-20T03:45:29;100253.92;;;13.15;100.00
58785;BME280;44557;51.862;19.378;2023-05-20T03:47:31;100255.95;;;12.93;100.00
58785;BME280;44557;51.862;19.378;2023-05-20T03:49:33;100258.88;;;13.02;100.00
58785;BME280;44557;51.862;19.378;2023-05-20T03:51:34;100259.11;;;12.99;100.00
58785;BME280;44557;51.862;19.378;2023-05-20T03:53:36;100262.01;;;13.01;100.00
58785;BME280;44557;51.862;19.378;2023-05-20T03:55:38;100266.66;;;13.04;100.00
58785;BME280;44557;51.862;19.378;2023-05-20T03:57:39;100266.58;;;13.02;100.00
58785;BME280;44557;51.862;19.378;2023-05-20T03:59:42;100264.91;;;12.85;100.00
58785;BME280;44557;51.862;19.378;2023-05-20T04:01:44;100264.30;;;12.81;100.00
58785;BME280;44557;51.862;19.378;2023-05-20T04:03:46;100269.33;;;13.02;100.00
58785;BME280;44557;51.862;19.378;2023-05-20T04:05:48;100271.27;;;12.88;100.00
58785;BME280;44557;51.862;19.378;2023-05-20T04:07:50;100275.70;;;12.78;100.00
58785;BME280;44557;51.862;19.378;2023-05-20T04:09:52;100272.27;;;12.94;100.00
58785;BME280;44557;51.862;19.378;2023-05-20T04:11:54;100278.30;;;13.08;100.00
58785;BME280;44557;51.862;19.378;2023-05-20T04:13:56;100276.99;;;13.02;100.00
58785;BME280;44557;51.862;19.378;2023-05-20T04:16:00;100276.15;;;13.07;100.00
58785;BME280;44557;51.862;19.378;2023-05-20T04:18:03;100276.40;;;13.03;100.00
58785;BME280;44557;51.862;19.378;2023-05-20T04:20:06;100276.95;;;13.01;100.00
58785;BME280;44557;51.862;19.378;2023-05-20T04:22:09;100276.40;;;12.94;100.00
58785;BME280;44557;51.862;19.378;2023-05-20T04:24:11;100274.52;;;12.99;100.00
58785;BME280;44557;51.862;19.378;2023-05-20T04:26:12;100273.86;;;12.92;100.00
58785;BME280;44557;51.862;19.378;2023-05-20T04:28:15;100276.83;;;13.10;100.00
58785;BME280;44557;51.862;19.378;2023-05-20T04:30:16;100276.73;;;13.04;100.00
58785;BME280;44557;51.862;19.378;2023-05-20T04:32:19;100273.67;;;13.00;100.00
58785;BME280;44557;51.862;19.378;2023-05-20T04:34:22;100274.17;;;12.92;100.00
58785;BME280;44557;51.862;19.378;2023-05-20T04:36:27;100275.70;;;13.04;100.00
58785;BME280;44557;51.862;19.378;2023-05-20T04:38:30;100275.94;;;13.07;100.00
58785;BME280;44557;51.862;19.378;2023-05-20T04:40:33;100274.27;;;12.92;100.00
58785;BME280;44557;51.862;19.378;2023-05-20T04:42:35;100271.52;;;12.97;100.00
58785;BME280;44557;51.862;19.378;2023-05-20T04:44:38;100269.52;;;13.07;100.00
58785;BME280;44557;51.862;19.378;2023-05-20T04:46:40;100262.94;;;13.22;100.00
58785;BME280;44557;51.862;19.378;2023-05-20T04:48:42;100255.29;;;13.31;99.97
58785;BME280;44557;51.862;19.378;2023-05-20T04:50:49;100253.88;;;13.38;99.62
58785;BME280;44557;51.862;19.378;2023-05-20T04:52:50;100259.77;;;13.46;99.24
58785;BME280;44557;51.862;19.378;2023-05-20T04:54:52;100258.38;;;13.56;98.64
58785;BME280;44557;51.862;19.378;2023-05-20T04:56:55;100257.24;;;13.62;98.56
58785;BME280;44557;51.862;19.378;2023-05-20T04:58:56;100258.30;;;13.60;98.15
58785;BME280;44557;51.862;19.378;2023-05-20T05:00:59;100257.81;;;13.75;97.93
58785;BME280;44557;51.862;19.378;2023-05-20T05:03:02;100259.09;;;13.80;97.49
58785;BME280;44557;51.862;19.378;2023-05-20T05:05:04;100260.55;;;13.86;97.54
58785;BME280;44557;51.862;19.378;2023-05-20T05:07:06;100262.02;;;13.97;96.82
58785;BME280;44557;51.862;19.378;2023-05-20T05:09:08;100266.41;;;13.93;96.91
58785;BME280;44557;51.862;19.378;2023-05-20T05:11:10;100270.13;;;13.91;97.03
58785;BME280;44557;51.862;19.378;2023-05-20T05:13:12;100267.54;;;13.96;97.15
58785;BME280;44557;51.862;19.378;2023-05-20T05:15:13;100264.60;;;13.89;97.03
58785;BME280;44557;51.862;19.378;2023-05-20T05:17:16;100265.27;;;14.02;96.52
58785;BME280;44557;51.862;19.378;2023-05-20T05:19:18;100264.52;;;13.86;97.47
58785;BME280;44557;51.862;19.378;2023-05-20T05:21:20;100267.34;;;13.93;97.45
58785;BME280;44557;51.862;19.378;2023-05-20T05:23:22;100264.25;;;13.95;96.97
58785;BME280;44557;51.862;19.378;2023-05-20T05:25:24;100269.17;;;14.03;96.57
58785;BME280;44557;51.862;19.378;2023-05-20T05:27:26;100273.16;;;14.11;95.93
58785;BME280;44557;51.862;19.378;2023-05-20T05:29:28;100274.88;;;14.00;95.46
58785;BME280;44557;51.862;19.378;2023-05-20T05:31:30;100281.02;;;13.87;96.36
58785;BME280;44557;51.862;19.378;2023-05-20T05:33:32;100281.58;;;13.94;96.42
58785;BME280;44557;51.862;19.378;2023-05-20T05:35:33;100283.42;;;14.07;95.75
58785;BME280;44557;51.862;19.378;2023-05-20T05:37:35;100288.19;;;14.23;95.36
58785;BME280;44557;51.862;19.378;2023-05-20T05:39:38;100284.89;;;14.46;94.08
58785;BME280;44557;51.862;19.378;2023-05-20T05:41:40;100285.63;;;14.44;93.60
58785;BME280;44557;51.862;19.378;2023-05-20T05:43:41;100289.36;;;14.30;94.28
58785;BME280;44557;51.862;19.378;2023-05-20T05:45:43;100289.96;;;14.09;95.56
58785;BME280;44557;51.862;19.378;2023-05-20T05:47:45;100292.55;;;14.16;96.34
58785;BME280;44557;51.862;19.378;2023-05-20T05:49:47;100293.26;;;14.30;95.78
58785;BME280;44557;51.862;19.378;2023-05-20T05:51:50;100290.31;;;14.17;96.95
58785;BME280;44557;51.862;19.378;2023-05-20T05:53:52;100291.30;;;14.19;96.86
58785;BME280;44557;51.862;19.378;2023-05-20T05:55:54;100284.89;;;14.11;97.10
58785;BME280;44557;51.862;19.378;2023-05-20T05:57:56;100286.12;;;14.10;97.97
58785;BME280;44557;51.862;19.378;2023-05-20T05:59:58;100287.27;;;14.16;97.62
58785;BME280;44557;51.862;19.378;2023-05-20T06:02:00;100288.90;;;14.18;97.31
58785;BME280;44557;51.862;19.378;2023-05-20T06:04:03;100286.83;;;14.13;97.05
58785;BME280;44557;51.862;19.378;2023-05-20T06:06:06;100287.89;;;14.35;95.93
58785;BME280;44557;51.862;19.378;2023-05-20T06:08:08;100288.12;;;14.42;95.35
58785;BME280;44557;51.862;19.378;2023-05-20T06:10:10;100291.63;;;14.33;95.28
58785;BME280;44557;51.862;19.378;2023-05-20T06:12:12;100295.81;;;14.16;96.67
58785;BME280;44557;51.862;19.378;2023-05-20T06:14:14;100295.02;;;14.14;96.46
58785;BME280;44557;51.862;19.378;2023-05-20T06:16:16;100293.34;;;14.08;96.31
58785;BME280;44557;51.862;19.378;2023-05-20T06:18:18;100295.19;;;13.99;95.75
58785;BME280;44557;51.862;19.378;2023-05-20T06:20:20;100296.00;;;14.02;96.08
58785;BME280;44557;51.862;19.378;2023-05-20T06:22:22;100298.27;;;14.14;95.85
58785;BME280;44557;51.862;19.378;2023-05-20T06:24:24;100298.39;;;14.30;95.88
58785;BME280;44557;51.862;19.378;2023-05-20T06:26:26;100291.02;;;14.41;95.64
58785;BME280;44557;51.862;19.378;2023-05-20T06:28:29;100290.11;;;14.35;95.13
58785;BME280;44557;51.862;19.378;2023-05-20T06:30:31;100286.41;;;14.34;95.91
58785;BME280;44557;51.862;19.378;2023-05-20T06:32:33;100284.90;;;14.36;95.39
58785;BME280;44557;51.862;19.378;2023-05-20T06:34:34;100281.80;;;14.43;94.85
58785;BME280;44557;51.862;19.378;2023-05-20T06:36:36;100279.23;;;14.66;93.53
58785;BME280;44557;51.862;19.378;2023-05-20T06:38:38;100282.88;;;14.82;92.67
58785;BME280;44557;51.862;19.378;2023-05-20T06:40:40;100280.37;;;14.91;92.51
58785;BME280;44557;51.862;19.378;2023-05-20T06:42:42;100278.13;;;14.68;93.67
58785;BME280;44557;51.862;19.378;2023-05-20T06:44:45;100277.45;;;14.75;92.80
58785;BME280;44557;51.862;19.378;2023-05-20T06:46:46;100275.73;;;14.68;91.94
58785;BME280;44557;51.862;19.378;2023-05-20T06:48:48;100272.65;;;14.63;92.01
58785;BME280;44557;51.862;19.378;2023-05-20T06:50:50;100270.84;;;14.82;91.01
58785;BME280;44557;51.862;19.378;2023-05-20T06:52:52;100271.21;;;14.90;90.66
58785;BME280;44557;51.862;19.378;2023-05-20T06:54:55;100266.18;;;14.99;90.71
58785;BME280;44557;51.862;19.378;2023-05-20T06:56:58;100270.38;;;14.88;91.14
58785;BME280;44557;51.862;19.378;2023-05-20T06:59:00;100268.02;;;14.86;91.58
58785;BME280;44557;51.862;19.378;2023-05-20T07:01:02;100268.38;;;14.87;91.19
58785;BME280;44557;51.862;19.378;2023-05-20T07:03:04;100266.86;;;14.87;91.42
58785;BME280;44557;51.862;19.378;2023-05-20T07:05:07;100263.12;;;14.86;91.16
58785;BME280;44557;51.862;19.378;2023-05-20T07:07:08;100265.80;;;15.02;91.51
58785;BME280;44557;51.862;19.378;2023-05-20T07:09:10;100261.70;;;14.95;91.77
58785;BME280;44557;51.862;19.378;2023-05-20T07:11:12;100261.55;;;14.92;90.57
58785;BME280;44557;51.862;19.378;2023-05-20T07:13:14;100259.14;;;14.94;90.44
58785;BME280;44557;51.862;19.378;2023-05-20T07:15:15;100255.40;;;14.96;90.33
58785;BME280;44557;51.862;19.378;2023-05-20T07:17:19;100254.46;;;15.03;91.22
58785;BME280;44557;51.862;19.378;2023-05-20T07:19:21;100254.46;;;15.03;92.19
58785;BME280;44557;51.862;19.378;2023-05-20T07:21:23;100254.01;;;14.86;92.25
58785;BME280;44557;51.862;19.378;2023-05-20T07:23:25;100251.99;;;14.83;92.62
58785;BME280;44557;51.862;19.378;2023-05-20T07:25:27;100249.61;;;14.82;92.36
58785;BME280;44557;51.862;19.378;2023-05-20T07:27:29;100249.95;;;15.00;92.59
58785;BME280;44557;51.862;19.378;2023-05-20T07:29:31;100253.52;;;15.05;92.72
58785;BME280;44557;51.862;19.378;2023-05-20T07:31:33;100252.98;;;15.17;91.76
58785;BME280;44557;51.862;19.378;2023-05-20T07:33:35;100252.64;;;15.20;91.56
58785;BME280;44557;51.862;19.378;2023-05-20T07:35:38;100253.55;;;15.18;90.81
58785;BME280;44557;51.862;19.378;2023-05-20T07:37:39;100253.77;;;15.17;90.70
58785;BME280;44557;51.862;19.378;2023-05-20T07:39:41;100255.58;;;15.23;90.50
58785;BME280;44557;51.862;19.378;2023-05-20T07:41:43;100254.02;;;15.09;90.89
58785;BME280;44557;51.862;19.378;2023-05-20T07:43:45;100252.14;;;15.05;90.76
58785;BME280;44557;51.862;19.378;2023-05-20T07:45:47;100253.66;;;15.08;91.07
58785;BME280;44557;51.862;19.378;2023-05-20T07:47:49;100257.23;;;15.11;91.60
58785;BME280;44557;51.862;19.378;2023-05-20T07:49:51;100258.14;;;15.21;91.81
58785;BME280;44557;51.862;19.378;2023-05-20T07:51:53;100255.33;;;15.11;91.89
58785;BME280;44557;51.862;19.378;2023-05-20T07:53:54;100261.23;;;15.15;91.62
58785;BME280;44557;51.862;19.378;2023-05-20T07:55:56;100261.59;;;15.27;91.55
58785;BME280;44557;51.862;19.378;2023-05-20T07:57:58;100264.43;;;15.48;92.15
58785;BME280;44557;51.862;19.378;2023-05-20T07:59:59;100261.46;;;15.64;91.49
58785;BME280;44557;51.862;19.378;2023-05-20T08:02:02;100261.90;;;15.63;91.34
58785;BME280;44557;51.862;19.378;2023-05-20T08:04:04;100261.05;;;15.64;91.24
58785;BME280;44557;51.862;19.378;2023-05-20T08:06:05;100261.69;;;15.55;90.64
58785;BME280;44557;51.862;19.378;2023-05-20T08:08:07;100257.18;;;15.40;91.46
58785;BME280;44557;51.862;19.378;2023-05-20T08:10:11;100256.51;;;15.42;91.49
58785;BME280;44557;51.862;19.378;2023-05-20T08:12:12;100255.39;;;15.36;91.61
58785;BME280;44557;51.862;19.378;2023-05-20T08:14:14;100247.98;;;15.38;91.88
58785;BME280;44557;51.862;19.378;2023-05-20T08:16:15;100248.58;;;15.66;90.80
58785;BME280;44557;51.862;19.378;2023-05-20T08:18:17;100245.77;;;15.84;90.89
58785;BME280;44557;51.862;19.378;2023-05-20T08:20:19;100241.89;;;16.07;89.69
58785;BME280;44557;51.862;19.378;2023-05-20T08:22:20;100239.95;;;16.34;90.04
58785;BME280;44557;51.862;19.378;2023-05-20T08:24:22;100241.75;;;16.46;90.32
58785;BME280;44557;51.862;19.378;2023-05-20T08:26:24;100237.95;;;16.53;90.22
58785;BME280;44557;51.862;19.378;2023-05-20T08:28:27;100238.43;;;16.33;88.65
58785;BME280;44557;51.862;19.378;2023-05-20T08:30:29;100238.64;;;16.18;88.97
58785;BME280;44557;51.862;19.378;2023-05-20T08:32:31;100232.74;;;16.27;88.61
58785;BME280;44557;51.862;19.378;2023-05-20T08:34:32;100231.88;;;16.46;89.12
58785;BME280;44557;51.862;19.378;2023-05-20T08:36:34;100228.15;;;16.71;88.70
58785;BME280;44557;51.862;19.378;2023-05-20T08:38:36;100223.03;;;16.73;86.87
58785;BME280;44557;51.862;19.378;2023-05-20T08:40:38;100222.80;;;16.62;86.89
58785;BME280;44557;51.862;19.378;2023-05-20T08:42:43;100218.88;;;16.97;87.09
58785;BME280;44557;51.862;19.378;2023-05-20T08:44:45;100218.35;;;17.27;88.31
58785;BME280;44557;51.862;19.378;2023-05-20T08:46:48;100218.09;;;17.34;86.12
58785;BME280;44557;51.862;19.378;2023-05-20T08:48:51;100213.86;;;17.46;85.06
58785;BME280;44557;51.862;19.378;2023-05-20T08:50:56;100212.67;;;17.03;85.27
58785;BME280;44557;51.862;19.378;2023-05-20T08:52:58;100212.79;;;17.15;85.24
58785;BME280;44557;51.862;19.378;2023-05-20T08:55:01;100210.65;;;17.28;84.92
58785;BME280;44557;51.862;19.378;2023-05-20T08:57:04;100210.39;;;17.35;84.86
58785;BME280;44557;51.862;19.378;2023-05-20T08:59:05;100210.05;;;17.56;85.98
58785;BME280;44557;51.862;19.378;2023-05-20T09:01:07;100207.83;;;17.70;84.97
58785;BME280;44557;51.862;19.378;2023-05-20T09:03:10;100208.02;;;17.80;84.23
58785;BME280;44557;51.862;19.378;2023-05-20T09:05:11;100209.73;;;17.61;84.27
58785;BME280;44557;51.862;19.378;2023-05-20T09:07:25;100207.77;;;17.53;84.29
58785;BME280;44557;51.862;19.378;2023-05-20T09:09:28;100208.16;;;17.44;84.53
58785;BME280;44557;51.862;19.378;2023-05-20T09:11:30;100212.58;;;17.54;85.60
58785;BME280;44557;51.862;19.378;2023-05-20T09:13:32;100209.74;;;17.47;85.67
58785;BME280;44557;51.862;19.378;2023-05-20T09:15:35;100210.98;;;17.59;85.96
58785;BME280;44557;51.862;19.378;2023-05-20T09:17:37;100212.86;;;17.70;85.67
58785;BME280;44557;51.862;19.378;2023-05-20T09:19:39;100209.43;;;17.70;85.07
58785;BME280;44557;51.862;19.378;2023-05-20T09:21:41;100205.78;;;17.48;85.19
58785;BME280;44557;51.862;19.378;2023-05-20T09:23:47;100202.90;;;17.61;85.30
58785;BME280;44557;51.862;19.378;2023-05-20T09:25:50;100200.06;;;17.57;85.26
58785;BME280;44557;51.862;19.378;2023-05-20T09:27:53;100199.02;;;17.48;85.97
58785;BME280;44557;51.862;19.378;2023-05-20T09:29:55;100203.20;;;17.29;84.89
58785;BME280;44557;51.862;19.378;2023-05-20T09:31:56;100204.31;;;17.20;85.30
58785;BME280;44557;51.862;19.378;2023-05-20T09:34:01;100196.20;;;17.39;85.10
58785;BME280;44557;51.862;19.378;2023-05-20T09:36:06;100191.40;;;17.46;84.67
58785;BME280;44557;51.862;19.378;2023-05-20T09:38:08;100197.31;;;17.55;84.93
58785;BME280;44557;51.862;19.378;2023-05-20T09:40:12;100196.45;;;17.47;85.52
58785;BME280;44557;51.862;19.378;2023-05-20T09:42:21;100197.76;;;17.45;84.99
58785;BME280;44557;51.862;19.378;2023-05-20T09:44:26;100193.05;;;17.45;85.21
58785;BME280;44557;51.862;19.378;2023-05-20T09:46:29;100192.44;;;17.59;85.15
58785;BME280;44557;51.862;19.378;2023-05-20T09:48:34;100197.00;;;17.74;85.45
58785;BME280;44557;51.862;19.378;2023-05-20T09:50:38;100192.11;;;17.68;84.64
58785;BME280;44557;51.862;19.378;2023-05-20T09:52:39;100194.13;;;17.74;84.77
58785;BME280;44557;51.862;19.378;2023-05-20T09:54:43;100191.23;;;17.87;84.70
58785;BME280;44557;51.862;19.378;2023-05-20T09:56:46;100193.35;;;17.90;84.54
58785;BME280;44557;51.862;19.378;2023-05-20T09:58:49;100191.57;;;17.83;84.94
58785;BME280;44557;51.862;19.378;2023-05-20T10:00:58;100196.98;;;17.78;84.65
58785;BME280;44557;51.862;19.378;2023-05-20T10:03:00;100196.03;;;17.83;84.85
58785;BME280;44557;51.862;19.378;2023-05-20T10:05:05;100196.42;;;17.83;84.04
58785;BME280;44557;51.862;19.378;2023-05-20T10:07:26;100195.94;;;18.04;85.04
58785;BME280;44557;51.862;19.378;2023-05-20T10:12:22;100191.86;;;18.25;82.10
58785;BME280;44557;51.862;19.378;2023-05-20T10:17:02;100194.28;;;18.39;83.25
58785;BME280;44557;51.862;19.378;2023-05-20T10:19:35;100195.51;;;18.35;83.19
58785;BME280;44557;51.862;19.378;2023-05-20T10:21:37;100186.40;;;18.49;82.40
58785;BME280;44557;51.862;19.378;2023-05-20T10:23:39;100187.48;;;18.51;82.74
58785;BME280;44557;51.862;19.378;2023-05-20T10:25:52;100189.66;;;18.55;82.42
58785;BME280;44557;51.862;19.378;2023-05-20T10:28:07;100192.48;;;18.52;82.85
58785;BME280;44557;51.862;19.378;2023-05-20T10:30:17;100188.55;;;18.48;82.40
58785;BME280;44557;51.862;19.378;2023-05-20T10:32:27;100182.92;;;18.57;83.08
58785;BME280;44557;51.862;19.378;2023-05-20T10:34:44;100178.52;;;18.56;83.25
58785;BME280;44557;51.862;19.378;2023-05-20T10:38:57;100177.06;;;18.61;82.45